Edinburg, North Dakota
Current Conditions -  °F | °C
As of 9:55 AM on Friday 31 Oct 2014 (Local Time) from K2C8 Reporting Station
Clear Clear  
Wind Chill: 16°   Ceiling: Unl
Heat Index: 23°   Visibility: 10mi
Dew Point: 18°   Wind: 6mph
Humidity: 80%   Direction: 190°S
Pressure: 30.59"   Gusts: NA
Location:  48.5°N, 97.86°W
Report Text: K2C8 311455Z AUTO 19005KT 10SM CLR M05/M08 A3059 RMK AO2
Loading
Personal Weather Stations






























Interactive Weather Map
Tropical Storm Tracking
New forecast layout! Learn more

10-Day Weather Forecast

Advertisements
Track Severe Weather on mobile